sensor_id;sensor_type;location;lat;lon;timestamp;P1;durP1;ratioP1;P2;durP2;ratioP2
76636;SDS011;65532;52.124;5.480;2023-04-07T00:00:47;10.63;;;4.35;;
76636;SDS011;65532;52.124;5.480;2023-04-07T00:03:13;9.57;;;3.40;;
76636;SDS011;65532;52.124;5.480;2023-04-07T00:05:40;8.82;;;2.78;;
76636;SDS011;65532;52.124;5.480;2023-04-07T00:08:06;9.55;;;2.88;;
76636;SDS011;65532;52.124;5.480;2023-04-07T00:10:33;8.48;;;3.72;;
76636;SDS011;65532;52.124;5.480;2023-04-07T00:13:00;6.28;;;3.92;;
76636;SDS011;65532;52.124;5.480;2023-04-07T00:15:26;7.93;;;4.30;;
76636;SDS011;65532;52.124;5.480;2023-04-07T00:17:53;11.32;;;3.72;;
76636;SDS011;65532;52.124;5.480;2023-04-07T00:20:19;6.60;;;2.50;;
76636;SDS011;65532;52.124;5.480;2023-04-07T00:22:46;8.60;;;2.95;;
76636;SDS011;65532;52.124;5.480;2023-04-07T00:25:12;7.30;;;2.55;;
76636;SDS011;65532;52.124;5.480;2023-04-07T00:27:39;6.00;;;2.83;;
76636;SDS011;65532;52.124;5.480;2023-04-07T00:30:05;10.50;;;5.00;;
76636;SDS011;65532;52.124;5.480;2023-04-07T00:32:32;13.18;;;3.75;;
76636;SDS011;65532;52.124;5.480;2023-04-07T00:35:01;14.48;;;3.42;;
76636;SDS011;65532;52.124;5.480;2023-04-07T00:37:27;7.93;;;4.07;;
76636;SDS011;65532;52.124;5.480;2023-04-07T00:39:54;8.85;;;3.90;;
76636;SDS011;65532;52.124;5.480;2023-04-07T00:42:22;13.02;;;5.68;;
76636;SDS011;65532;52.124;5.480;2023-04-07T00:44:48;10.25;;;3.78;;
76636;SDS011;65532;52.124;5.480;2023-04-07T00:47:15;11.48;;;4.93;;
76636;SDS011;65532;52.124;5.480;2023-04-07T00:49:41;10.00;;;4.47;;
76636;SDS011;65532;52.124;5.480;2023-04-07T00:52:08;9.45;;;5.82;;
76636;SDS011;65532;52.124;5.480;2023-04-07T00:54:39;16.48;;;5.50;;
76636;SDS011;65532;52.124;5.480;2023-04-07T00:57:07;14.20;;;4.72;;
76636;SDS011;65532;52.124;5.480;2023-04-07T00:59:34;9.82;;;3.55;;
76636;SDS011;65532;52.124;5.480;2023-04-07T01:02:20;12.95;;;4.50;;
76636;SDS011;65532;52.124;5.480;2023-04-07T01:04:50;9.80;;;3.92;;
76636;SDS011;65532;52.124;5.480;2023-04-07T01:07:47;9.55;;;4.30;;
76636;SDS011;65532;52.124;5.480;2023-04-07T01:10:26;11.95;;;5.57;;
76636;SDS011;65532;52.124;5.480;2023-04-07T01:13:20;11.10;;;4.88;;
76636;SDS011;65532;52.124;5.480;2023-04-07T01:15:54;12.50;;;5.30;;
76636;SDS011;65532;52.124;5.480;2023-04-07T01:18:31;11.77;;;5.18;;
76636;SDS011;65532;52.124;5.480;2023-04-07T01:21:01;9.52;;;4.32;;
76636;SDS011;65532;52.124;5.480;2023-04-07T01:26:36;10.32;;;4.60;;
76636;SDS011;65532;52.124;5.480;2023-04-07T01:32:06;10.38;;;4.15;;
76636;SDS011;65532;52.124;5.480;2023-04-07T01:37:03;11.70;;;4.60;;
76636;SDS011;65532;52.124;5.480;2023-04-07T01:39:33;10.90;;;4.05;;
76636;SDS011;65532;52.124;5.480;2023-04-07T01:42:02;12.45;;;5.05;;
76636;SDS011;65532;52.124;5.480;2023-04-07T01:44:30;14.73;;;3.92;;
76636;SDS011;65532;52.124;5.480;2023-04-07T01:46:58;13.05;;;4.82;;
76636;SDS011;65532;52.124;5.480;2023-04-07T01:49:26;12.10;;;5.25;;
76636;SDS011;65532;52.124;5.480;2023-04-07T01:51:53;10.70;;;5.10;;
76636;SDS011;65532;52.124;5.480;2023-04-07T01:54:20;11.90;;;3.47;;
76636;SDS011;65532;52.124;5.480;2023-04-07T01:56:48;11.57;;;3.90;;
76636;SDS011;65532;52.124;5.480;2023-04-07T01:59:14;12.52;;;5.10;;
76636;SDS011;65532;52.124;5.480;2023-04-07T02:01:41;13.65;;;4.53;;
76636;SDS011;65532;52.124;5.480;2023-04-07T02:06:59;13.68;;;5.13;;
76636;SDS011;65532;52.124;5.480;2023-04-07T02:09:34;12.52;;;3.95;;
76636;SDS011;65532;52.124;5.480;2023-04-07T02:12:07;14.40;;;5.10;;
76636;SDS011;65532;52.124;5.480;2023-04-07T02:14:40;13.23;;;6.95;;
76636;SDS011;65532;52.124;5.480;2023-04-07T02:17:10;18.25;;;5.55;;
76636;SDS011;65532;52.124;5.480;2023-04-07T02:19:41;10.93;;;4.18;;
76636;SDS011;65532;52.124;5.480;2023-04-07T02:22:10;16.77;;;6.38;;
76636;SDS011;65532;52.124;5.480;2023-04-07T02:24:40;12.30;;;6.53;;
76636;SDS011;65532;52.124;5.480;2023-04-07T02:27:07;14.75;;;5.65;;
76636;SDS011;65532;52.124;5.480;2023-04-07T02:29:34;15.48;;;4.20;;
76636;SDS011;65532;52.124;5.480;2023-04-07T02:32:01;13.25;;;4.20;;
76636;SDS011;65532;52.124;5.480;2023-04-07T02:34:28;12.93;;;6.38;;
76636;SDS011;65532;52.124;5.480;2023-04-07T02:36:54;16.92;;;5.82;;
76636;SDS011;65532;52.124;5.480;2023-04-07T02:39:21;11.88;;;4.97;;
76636;SDS011;65532;52.124;5.480;2023-04-07T02:41:47;14.40;;;5.85;;
76636;SDS011;65532;52.124;5.480;2023-04-07T02:44:14;16.73;;;6.22;;
76636;SDS011;65532;52.124;5.480;2023-04-07T02:46:41;15.25;;;5.75;;
76636;SDS011;65532;52.124;5.480;2023-04-07T02:49:07;13.45;;;5.82;;
76636;SDS011;65532;52.124;5.480;2023-04-07T02:51:36;16.90;;;6.22;;
76636;SDS011;65532;52.124;5.480;2023-04-07T02:54:03;14.00;;;5.80;;
76636;SDS011;65532;52.124;5.480;2023-04-07T02:56:29;13.93;;;6.03;;
76636;SDS011;65532;52.124;5.480;2023-04-07T02:58:56;13.65;;;5.05;;
76636;SDS011;65532;52.124;5.480;2023-04-07T03:01:23;15.50;;;4.97;;
76636;SDS011;65532;52.124;5.480;2023-04-07T03:03:49;13.55;;;5.47;;
76636;SDS011;65532;52.124;5.480;2023-04-07T03:06:22;10.68;;;4.65;;
76636;SDS011;65532;52.124;5.480;2023-04-07T03:08:58;9.85;;;5.40;;
76636;SDS011;65532;52.124;5.480;2023-04-07T03:11:25;11.60;;;4.93;;
76636;SDS011;65532;52.124;5.480;2023-04-07T03:13:54;10.77;;;4.05;;
76636;SDS011;65532;52.124;5.480;2023-04-07T03:16:21;12.50;;;4.75;;
76636;SDS011;65532;52.124;5.480;2023-04-07T03:18:58;14.18;;;5.40;;
76636;SDS011;65532;52.124;5.480;2023-04-07T03:21:25;15.85;;;5.28;;
76636;SDS011;65532;52.124;5.480;2023-04-07T03:23:53;11.05;;;4.53;;
76636;SDS011;65532;52.124;5.480;2023-04-07T03:26:21;17.00;;;5.55;;
76636;SDS011;65532;52.124;5.480;2023-04-07T03:28:48;14.00;;;5.28;;
76636;SDS011;65532;52.124;5.480;2023-04-07T03:31:15;12.43;;;3.97;;
76636;SDS011;65532;52.124;5.480;2023-04-07T03:33:43;12.10;;;3.95;;
76636;SDS011;65532;52.124;5.480;2023-04-07T03:36:10;15.25;;;4.82;;
76636;SDS011;65532;52.124;5.480;2023-04-07T03:38:37;10.63;;;5.35;;
76636;SDS011;65532;52.124;5.480;2023-04-07T03:41:04;8.23;;;4.88;;
76636;SDS011;65532;52.124;5.480;2023-04-07T03:43:30;12.75;;;5.43;;
76636;SDS011;65532;52.124;5.480;2023-04-07T03:45:57;13.38;;;4.07;;
76636;SDS011;65532;52.124;5.480;2023-04-07T03:48:24;11.65;;;3.67;;
76636;SDS011;65532;52.124;5.480;2023-04-07T03:51:05;12.00;;;4.15;;
76636;SDS011;65532;52.124;5.480;2023-04-07T03:53:33;10.60;;;4.47;;
76636;SDS011;65532;52.124;5.480;2023-04-07T03:56:09;11.27;;;4.32;;
76636;SDS011;65532;52.124;5.480;2023-04-07T03:58:41;14.40;;;4.57;;
76636;SDS011;65532;52.124;5.480;2023-04-07T04:01:14;12.95;;;4.82;;
76636;SDS011;65532;52.124;5.480;2023-04-07T04:03:43;10.05;;;4.15;;
76636;SDS011;65532;52.124;5.480;2023-04-07T04:06:24;10.73;;;4.28;;
76636;SDS011;65532;52.124;5.480;2023-04-07T04:08:58;10.95;;;3.38;;
76636;SDS011;65532;52.124;5.480;2023-04-07T04:11:25;8.57;;;3.90;;
76636;SDS011;65532;52.124;5.480;2023-04-07T04:13:58;10.73;;;3.22;;
76636;SDS011;65532;52.124;5.480;2023-04-07T04:16:25;10.77;;;3.83;;
76636;SDS011;65532;52.124;5.480;2023-04-07T04:18:55;14.95;;;4.15;;
76636;SDS011;65532;52.124;5.480;2023-04-07T04:21:23;6.57;;;4.03;;
76636;SDS011;65532;52.124;5.480;2023-04-07T04:23:50;8.73;;;3.97;;
76636;SDS011;65532;52.124;5.480;2023-04-07T04:26:16;11.93;;;4.50;;
76636;SDS011;65532;52.124;5.480;2023-04-07T04:28:43;9.25;;;4.05;;
76636;SDS011;65532;52.124;5.480;2023-04-07T04:31:11;12.55;;;4.63;;
76636;SDS011;65532;52.124;5.480;2023-04-07T04:33:41;8.75;;;2.75;;
76636;SDS011;65532;52.124;5.480;2023-04-07T04:36:08;12.98;;;3.63;;
76636;SDS011;65532;52.124;5.480;2023-04-07T04:38:35;10.13;;;5.18;;
76636;SDS011;65532;52.124;5.480;2023-04-07T04:41:08;8.60;;;3.78;;
76636;SDS011;65532;52.124;5.480;2023-04-07T04:43:34;10.38;;;5.25;;
76636;SDS011;65532;52.124;5.480;2023-04-07T04:46:02;10.27;;;3.90;;
76636;SDS011;65532;52.124;5.480;2023-04-07T04:48:33;11.13;;;3.83;;
76636;SDS011;65532;52.124;5.480;2023-04-07T04:51:03;13.43;;;3.35;;
76636;SDS011;65532;52.124;5.480;2023-04-07T04:53:29;11.32;;;2.90;;
76636;SDS011;65532;52.124;5.480;2023-04-07T04:55:59;6.28;;;3.05;;
76636;SDS011;65532;52.124;5.480;2023-04-07T04:58:35;8.15;;;2.65;;
76636;SDS011;65532;52.124;5.480;2023-04-07T05:01:01;13.23;;;4.20;;
76636;SDS011;65532;52.124;5.480;2023-04-07T05:03:41;8.55;;;4.70;;
76636;SDS011;65532;52.124;5.480;2023-04-07T05:06:16;9.25;;;3.50;;
76636;SDS011;65532;52.124;5.480;2023-04-07T05:08:45;13.23;;;3.60;;
76636;SDS011;65532;52.124;5.480;2023-04-07T05:11:13;12.02;;;5.70;;
76636;SDS011;65532;52.124;5.480;2023-04-07T05:13:43;7.80;;;3.90;;
76636;SDS011;65532;52.124;5.480;2023-04-07T05:16:09;10.00;;;2.95;;
76636;SDS011;65532;52.124;5.480;2023-04-07T05:18:37;8.63;;;4.63;;
76636;SDS011;65532;52.124;5.480;2023-04-07T05:21:04;9.07;;;4.95;;
76636;SDS011;65532;52.124;5.480;2023-04-07T05:23:33;8.40;;;3.50;;
76636;SDS011;65532;52.124;5.480;2023-04-07T05:26:02;12.07;;;2.83;;
76636;SDS011;65532;52.124;5.480;2023-04-07T05:28:29;6.45;;;3.20;;
76636;SDS011;65532;52.124;5.480;2023-04-07T05:30:59;8.20;;;3.30;;
76636;SDS011;65532;52.124;5.480;2023-04-07T05:35:56;10.27;;;1.98;;
76636;SDS011;65532;52.124;5.480;2023-04-07T05:38:22;8.40;;;2.60;;
76636;SDS011;65532;52.124;5.480;2023-04-07T05:40:51;7.38;;;2.50;;
76636;SDS011;65532;52.124;5.480;2023-04-07T05:43:23;6.32;;;2.20;;
76636;SDS011;65532;52.124;5.480;2023-04-07T05:45:49;7.57;;;1.92;;
76636;SDS011;65532;52.124;5.480;2023-04-07T05:48:16;7.68;;;1.58;;
76636;SDS011;65532;52.124;5.480;2023-04-07T05:50:45;5.50;;;1.98;;
76636;SDS011;65532;52.124;5.480;2023-04-07T05:53:15;3.25;;;1.63;;
76636;SDS011;65532;52.124;5.480;2023-04-07T05:55:42;5.55;;;1.35;;
76636;SDS011;65532;52.124;5.480;2023-04-07T05:58:13;4.47;;;1.70;;
76636;SDS011;65532;52.124;5.480;2023-04-07T06:00:45;5.30;;;1.65;;
76636;SDS011;65532;52.124;5.480;2023-04-07T06:03:14;7.50;;;3.25;;
76636;SDS011;65532;52.124;5.480;2023-04-07T06:05:57;4.53;;;2.72;;
76636;SDS011;65532;52.124;5.480;2023-04-07T06:08:24;7.30;;;2.30;;
76636;SDS011;65532;52.124;5.480;2023-04-07T06:10:51;5.82;;;2.78;;
76636;SDS011;65532;52.124;5.480;2023-04-07T06:13:17;6.60;;;3.30;;
76636;SDS011;65532;52.124;5.480;2023-04-07T06:15:43;4.40;;;2.55;;
76636;SDS011;65532;52.124;5.480;2023-04-07T06:18:10;7.20;;;2.42;;
76636;SDS011;65532;52.124;5.480;2023-04-07T06:20:37;8.13;;;2.90;;
76636;SDS011;65532;52.124;5.480;2023-04-07T06:23:04;8.57;;;3.42;;
76636;SDS011;65532;52.124;5.480;2023-04-07T06:25:31;10.93;;;2.50;;
76636;SDS011;65532;52.124;5.480;2023-04-07T06:27:59;7.47;;;2.05;;
76636;SDS011;65532;52.124;5.480;2023-04-07T06:30:26;9.77;;;2.90;;
76636;SDS011;65532;52.124;5.480;2023-04-07T06:32:53;9.23;;;2.53;;
76636;SDS011;65532;52.124;5.480;2023-04-07T06:35:20;6.50;;;3.20;;
76636;SDS011;65532;52.124;5.480;2023-04-07T06:37:46;6.85;;;2.95;;
76636;SDS011;65532;52.124;5.480;2023-04-07T06:40:13;8.30;;;1.42;;
76636;SDS011;65532;52.124;5.480;2023-04-07T06:42:40;6.07;;;2.38;;
76636;SDS011;65532;52.124;5.480;2023-04-07T06:45:17;6.22;;;2.72;;
76636;SDS011;65532;52.124;5.480;2023-04-07T06:47:43;6.10;;;1.95;;
76636;SDS011;65532;52.124;5.480;2023-04-07T06:50:10;6.35;;;2.67;;
76636;SDS011;65532;52.124;5.480;2023-04-07T06:52:36;7.63;;;1.80;;
76636;SDS011;65532;52.124;5.480;2023-04-07T06:55:03;6.40;;;2.72;;
76636;SDS011;65532;52.124;5.480;2023-04-07T06:57:29;7.45;;;2.10;;
76636;SDS011;65532;52.124;5.480;2023-04-07T06:59:56;3.95;;;2.42;;
76636;SDS011;65532;52.124;5.480;2023-04-07T07:02:22;6.53;;;2.67;;
76636;SDS011;65532;52.124;5.480;2023-04-07T07:04:49;9.45;;;1.92;;
76636;SDS011;65532;52.124;5.480;2023-04-07T07:07:15;7.32;;;1.75;;
76636;SDS011;65532;52.124;5.480;2023-04-07T07:09:42;5.60;;;2.63;;
76636;SDS011;65532;52.124;5.480;2023-04-07T07:12:08;7.93;;;1.63;;
76636;SDS011;65532;52.124;5.480;2023-04-07T07:14:35;4.65;;;1.58;;
76636;SDS011;65532;52.124;5.480;2023-04-07T07:17:01;6.97;;;1.60;;
76636;SDS011;65532;52.124;5.480;2023-04-07T07:19:28;7.63;;;2.83;;
76636;SDS011;65532;52.124;5.480;2023-04-07T07:21:55;4.75;;;2.10;;
76636;SDS011;65532;52.124;5.480;2023-04-07T07:24:21;9.57;;;3.35;;
76636;SDS011;65532;52.124;5.480;2023-04-07T07:26:48;6.07;;;2.92;;
76636;SDS011;65532;52.124;5.480;2023-04-07T07:29:14;9.27;;;1.90;;
76636;SDS011;65532;52.124;5.480;2023-04-07T07:31:41;6.43;;;2.08;;
76636;SDS011;65532;52.124;5.480;2023-04-07T07:34:07;10.05;;;2.80;;
76636;SDS011;65532;52.124;5.480;2023-04-07T07:36:34;8.55;;;3.45;;
76636;SDS011;65532;52.124;5.480;2023-04-07T07:39:00;9.80;;;2.38;;
76636;SDS011;65532;52.124;5.480;2023-04-07T07:41:27;7.35;;;2.83;;
76636;SDS011;65532;52.124;5.480;2023-04-07T07:43:53;6.78;;;2.85;;
76636;SDS011;65532;52.124;5.480;2023-04-07T07:46:20;9.48;;;2.72;;
76636;SDS011;65532;52.124;5.480;2023-04-07T07:48:49;7.38;;;2.35;;
76636;SDS011;65532;52.124;5.480;2023-04-07T07:51:15;5.97;;;2.00;;
76636;SDS011;65532;52.124;5.480;2023-04-07T07:53:43;9.30;;;3.63;;
76636;SDS011;65532;52.124;5.480;2023-04-07T07:56:11;6.35;;;2.50;;
76636;SDS011;65532;52.124;5.480;2023-04-07T07:58:38;9.18;;;2.33;;
76636;SDS011;65532;52.124;5.480;2023-04-07T08:01:05;8.27;;;3.25;;
76636;SDS011;65532;52.124;5.480;2023-04-07T08:03:31;8.38;;;2.35;;
76636;SDS011;65532;52.124;5.480;2023-04-07T08:05:58;10.13;;;2.67;;
76636;SDS011;65532;52.124;5.480;2023-04-07T08:08:24;11.02;;;2.72;;
76636;SDS011;65532;52.124;5.480;2023-04-07T08:10:51;6.35;;;1.90;;
76636;SDS011;65532;52.124;5.480;2023-04-07T08:13:17;8.98;;;1.88;;
76636;SDS011;65532;52.124;5.480;2023-04-07T08:15:44;8.43;;;1.88;;
76636;SDS011;65532;52.124;5.480;2023-04-07T08:18:10;5.72;;;2.33;;
76636;SDS011;65532;52.124;5.480;2023-04-07T08:20:37;9.27;;;2.63;;
76636;SDS011;65532;52.124;5.480;2023-04-07T08:23:03;7.88;;;1.88;;
76636;SDS011;65532;52.124;5.480;2023-04-07T08:25:30;7.82;;;2.65;;
76636;SDS011;65532;52.124;5.480;2023-04-07T08:27:56;8.70;;;1.73;;
76636;SDS011;65532;52.124;5.480;2023-04-07T08:30:23;8.35;;;1.77;;
76636;SDS011;65532;52.124;5.480;2023-04-07T08:32:49;5.70;;;2.13;;
76636;SDS011;65532;52.124;5.480;2023-04-07T08:35:16;4.75;;;1.98;;
76636;SDS011;65532;52.124;5.480;2023-04-07T08:37:43;8.23;;;1.08;;
76636;SDS011;65532;52.124;5.480;2023-04-07T08:40:09;9.02;;;2.42;;
76636;SDS011;65532;52.124;5.480;2023-04-07T08:42:39;6.93;;;2.42;;
76636;SDS011;65532;52.124;5.480;2023-04-07T08:47:35;4.45;;;2.30;;
76636;SDS011;65532;52.124;5.480;2023-04-07T08:50:03;4.85;;;1.42;;
76636;SDS011;65532;52.124;5.480;2023-04-07T08:52:45;4.65;;;1.58;;
76636;SDS011;65532;52.124;5.480;2023-04-07T08:55:13;3.63;;;1.65;;
76636;SDS011;65532;52.124;5.480;2023-04-07T08:57:41;9.82;;;1.52;;
76636;SDS011;65532;52.124;5.480;2023-04-07T09:00:08;5.78;;;1.02;;
76636;SDS011;65532;52.124;5.480;2023-04-07T09:02:36;4.28;;;1.70;;
76636;SDS011;65532;52.124;5.480;2023-04-07T09:05:05;6.03;;;1.52;;
76636;SDS011;65532;52.124;5.480;2023-04-07T09:07:34;5.82;;;2.22;;
76636;SDS011;65532;52.124;5.480;2023-04-07T09:10:02;5.13;;;2.45;;
76636;SDS011;65532;52.124;5.480;2023-04-07T09:12:29;8.05;;;2.70;;
76636;SDS011;65532;52.124;5.480;2023-04-07T09:14:57;4.25;;;1.65;;
76636;SDS011;65532;52.124;5.480;2023-04-07T09:17:24;3.58;;;1.35;;
76636;SDS011;65532;52.124;5.480;2023-04-07T09:19:54;3.90;;;0.63;;
76636;SDS011;65532;52.124;5.480;2023-04-07T09:22:34;5.00;;;1.38;;
76636;SDS011;65532;52.124;5.480;2023-04-07T09:25:08;4.22;;;0.88;;
76636;SDS011;65532;52.124;5.480;2023-04-07T09:27:36;4.03;;;1.00;;
76636;SDS011;65532;52.124;5.480;2023-04-07T09:30:12;6.60;;;1.35;;
76636;SDS011;65532;52.124;5.480;2023-04-07T09:32:40;4.32;;;2.10;;
76636;SDS011;65532;52.124;5.480;2023-04-07T09:35:07;4.25;;;1.45;;
76636;SDS011;65532;52.124;5.480;2023-04-07T09:37:34;4.88;;;1.52;;
76636;SDS011;65532;52.124;5.480;2023-04-07T09:40:01;4.38;;;0.65;;
76636;SDS011;65532;52.124;5.480;2023-04-07T09:42:28;5.65;;;1.23;;
76636;SDS011;65532;52.124;5.480;2023-04-07T09:44:59;5.00;;;1.52;;
76636;SDS011;65532;52.124;5.480;2023-04-07T09:47:27;5.22;;;1.20;;
76636;SDS011;65532;52.124;5.480;2023-04-07T09:49:55;3.75;;;0.77;;
76636;SDS011;65532;52.124;5.480;2023-04-07T09:52:24;4.93;;;1.58;;
76636;SDS011;65532;52.124;5.480;2023-04-07T09:55:12;7.43;;;2.08;;
76636;SDS011;65532;52.124;5.480;2023-04-07T09:57:39;5.45;;;2.92;;
76636;SDS011;65532;52.124;5.480;2023-04-07T10:00:07;4.43;;;0.93;;
76636;SDS011;65532;52.124;5.480;2023-04-07T10:02:38;3.30;;;1.92;;
76636;SDS011;65532;52.124;5.480;2023-04-07T10:05:05;3.53;;;2.20;;
76636;SDS011;65532;52.124;5.480;2023-04-07T10:07:32;2.15;;;1.00;;
76636;SDS011;65532;52.124;5.480;2023-04-07T10:09:59;3.50;;;1.88;;
76636;SDS011;65532;52.124;5.480;2023-04-07T10:12:26;4.35;;;1.75;;
76636;SDS011;65532;52.124;5.480;2023-04-07T10:14:53;3.30;;;1.88;;
76636;SDS011;65532;52.124;5.480;2023-04-07T10:17:22;3.95;;;0.90;;
76636;SDS011;65532;52.124;5.480;2023-04-07T10:19:49;3.33;;;0.52;;
76636;SDS011;65532;52.124;5.480;2023-04-07T10:22:16;2.92;;;1.05;;
76636;SDS011;65532;52.124;5.480;2023-04-07T10:25:01;3.83;;;2.47;;
76636;SDS011;65532;52.124;5.480;2023-04-07T10:27:33;5.28;;;1.30;;
76636;SDS011;65532;52.124;5.480;2023-04-07T10:30:02;2.95;;;0.52;;
76636;SDS011;65532;52.124;5.480;2023-04-07T10:35:10;7.70;;;1.73;;
76636;SDS011;65532;52.124;5.480;2023-04-07T10:37:37;1.95;;;0.60;;
76636;SDS011;65532;52.124;5.480;2023-04-07T10:42:45;3.75;;;0.90;;
76636;SDS011;65532;52.124;5.480;2023-04-07T10:45:12;3.65;;;1.75;;
76636;SDS011;65532;52.124;5.480;2023-04-07T10:50:24;3.00;;;1.10;;
76636;SDS011;65532;52.124;5.480;2023-04-07T10:53:04;3.63;;;0.52;;
76636;SDS011;65532;52.124;5.480;2023-04-07T10:55:38;4.35;;;1.27;;
76636;SDS011;65532;52.124;5.480;2023-04-07T11:03:35;4.57;;;1.65;;
76636;SDS011;65532;52.124;5.480;2023-04-07T11:06:07;2.72;;;0.70;;
76636;SDS011;65532;52.124;5.480;2023-04-07T11:08:35;4.50;;;0.50;;
76636;SDS011;65532;52.124;5.480;2023-04-07T11:11:03;2.83;;;0.57;;
76636;SDS011;65532;52.124;5.480;2023-04-07T11:13:40;4.60;;;1.65;;
76636;SDS011;65532;52.124;5.480;2023-04-07T11:16:12;3.22;;;1.52;;
76636;SDS011;65532;52.124;5.480;2023-04-07T11:18:39;7.30;;;1.33;;
76636;SDS011;65532;52.124;5.480;2023-04-07T11:21:06;6.93;;;1.98;;
76636;SDS011;65532;52.124;5.480;2023-04-07T11:23:37;4.85;;;0.82;;
76636;SDS011;65532;52.124;5.480;2023-04-07T11:26:05;4.05;;;1.02;;
76636;SDS011;65532;52.124;5.480;2023-04-07T11:28:32;3.63;;;1.38;;
76636;SDS011;65532;52.124;5.480;2023-04-07T11:30:58;4.50;;;1.70;;
76636;SDS011;65532;52.124;5.480;2023-04-07T11:33:26;5.10;;;0.60;;
76636;SDS011;65532;52.124;5.480;2023-04-07T11:35:58;3.50;;;0.65;;
76636;SDS011;65532;52.124;5.480;2023-04-07T11:38:28;3.85;;;0.70;;
76636;SDS011;65532;52.124;5.480;2023-04-07T11:41:08;6.68;;;0.60;;
76636;SDS011;65532;52.124;5.480;2023-04-07T11:43:39;2.05;;;0.68;;
76636;SDS011;65532;52.124;5.480;2023-04-07T11:46:16;5.38;;;1.52;;
76636;SDS011;65532;52.124;5.480;2023-04-07T11:48:43;6.43;;;0.57;;
76636;SDS011;65532;52.124;5.480;2023-04-07T11:51:15;4.45;;;1.65;;
76636;SDS011;65532;52.124;5.480;2023-04-07T11:53:43;2.90;;;0.70;;
76636;SDS011;65532;52.124;5.480;2023-04-07T11:56:12;4.35;;;0.88;;
76636;SDS011;65532;52.124;5.480;2023-04-07T11:58:47;3.63;;;1.10;;
76636;SDS011;65532;52.124;5.480;2023-04-07T12:01:15;5.50;;;0.93;;
76636;SDS011;65532;52.124;5.480;2023-04-07T12:03:58;4.35;;;1.48;;
76636;SDS011;65532;52.124;5.480;2023-04-07T12:06:28;4.30;;;1.13;;
76636;SDS011;65532;52.124;5.480;2023-04-07T12:09:03;3.40;;;1.80;;
76636;SDS011;65532;52.124;5.480;2023-04-07T12:11:31;3.65;;;1.90;;
76636;SDS011;65532;52.124;5.480;2023-04-07T12:13:58;3.88;;;1.70;;
76636;SDS011;65532;52.124;5.480;2023-04-07T12:16:25;7.07;;;2.33;;
76636;SDS011;65532;52.124;5.480;2023-04-07T12:18:51;5.90;;;1.10;;
76636;SDS011;65532;52.124;5.480;2023-04-07T12:21:18;6.40;;;1.98;;
76636;SDS011;65532;52.124;5.480;2023-04-07T12:23:45;4.40;;;2.13;;
76636;SDS011;65532;52.124;5.480;2023-04-07T12:26:13;2.45;;;1.08;;
76636;SDS011;65532;52.124;5.480;2023-04-07T12:28:39;4.63;;;1.85;;
76636;SDS011;65532;52.124;5.480;2023-04-07T12:31:06;4.05;;;0.85;;
76636;SDS011;65532;52.124;5.480;2023-04-07T12:33:32;5.93;;;1.95;;
76636;SDS011;65532;52.124;5.480;2023-04-07T12:35:58;4.85;;;0.75;;
76636;SDS011;65532;52.124;5.480;2023-04-07T12:38:26;8.25;;;2.40;;
76636;SDS011;65532;52.124;5.480;2023-04-07T12:40:52;4.43;;;1.50;;
76636;SDS011;65532;52.124;5.480;2023-04-07T12:43:19;3.25;;;1.58;;
76636;SDS011;65532;52.124;5.480;2023-04-07T12:45:45;3.20;;;1.48;;
76636;SDS011;65532;52.124;5.480;2023-04-07T12:48:12;4.35;;;1.75;;
76636;SDS011;65532;52.124;5.480;2023-04-07T12:50:39;3.22;;;1.02;;
76636;SDS011;65532;52.124;5.480;2023-04-07T12:53:05;3.78;;;0.60;;
76636;SDS011;65532;52.124;5.480;2023-04-07T12:55:32;2.08;;;1.48;;
76636;SDS011;65532;52.124;5.480;2023-04-07T12:57:59;4.72;;;0.52;;
76636;SDS011;65532;52.124;5.480;2023-04-07T13:00:25;5.40;;;0.80;;
76636;SDS011;65532;52.124;5.480;2023-04-07T13:02:52;4.90;;;1.95;;
76636;SDS011;65532;52.124;5.480;2023-04-07T13:05:18;2.67;;;0.73;;
76636;SDS011;65532;52.124;5.480;2023-04-07T13:07:45;6.22;;;1.73;;
76636;SDS011;65532;52.124;5.480;2023-04-07T13:10:14;3.78;;;2.08;;
76636;SDS011;65532;52.124;5.480;2023-04-07T13:12:41;6.18;;;0.98;;
76636;SDS011;65532;52.124;5.480;2023-04-07T13:15:07;3.88;;;3.38;;
76636;SDS011;65532;52.124;5.480;2023-04-07T13:17:34;2.85;;;0.80;;
76636;SDS011;65532;52.124;5.480;2023-04-07T13:20:04;5.13;;;1.67;;
76636;SDS011;65532;52.124;5.480;2023-04-07T13:22:32;3.55;;;2.05;;
76636;SDS011;65532;52.124;5.480;2023-04-07T13:25:01;3.05;;;2.08;;
76636;SDS011;65532;52.124;5.480;2023-04-07T13:27:27;5.65;;;0.80;;
76636;SDS011;65532;52.124;5.480;2023-04-07T13:29:54;3.38;;;1.73;;
76636;SDS011;65532;52.124;5.480;2023-04-07T13:32:20;4.60;;;1.88;;
76636;SDS011;65532;52.124;5.480;2023-04-07T13:34:48;5.50;;;1.02;;
76636;SDS011;65532;52.124;5.480;2023-04-07T13:37:15;6.03;;;2.63;;
76636;SDS011;65532;52.124;5.480;2023-04-07T13:39:42;6.97;;;1.98;;
76636;SDS011;65532;52.124;5.480;2023-04-07T13:42:08;5.68;;;1.88;;
76636;SDS011;65532;52.124;5.480;2023-04-07T13:44:37;8.07;;;0.80;;
76636;SDS011;65532;52.124;5.480;2023-04-07T13:47:05;5.75;;;1.17;;
76636;SDS011;65532;52.124;5.480;2023-04-07T13:49:31;2.80;;;1.10;;
76636;SDS011;65532;52.124;5.480;2023-04-07T13:51:58;4.68;;;2.58;;
76636;SDS011;65532;52.124;5.480;2023-04-07T13:54:24;7.25;;;2.78;;
76636;SDS011;65532;52.124;5.480;2023-04-07T13:56:51;4.90;;;1.17;;
76636;SDS011;65532;52.124;5.480;2023-04-07T13:59:17;6.05;;;2.67;;
76636;SDS011;65532;52.124;5.480;2023-04-07T14:01:44;4.55;;;2.55;;
76636;SDS011;65532;52.124;5.480;2023-04-07T14:04:11;6.50;;;1.88;;
76636;SDS011;65532;52.124;5.480;2023-04-07T14:06:37;7.50;;;1.90;;
76636;SDS011;65532;52.124;5.480;2023-04-07T14:09:04;6.38;;;2.20;;
76636;SDS011;65532;52.124;5.480;2023-04-07T14:11:32;7.45;;;1.70;;
76636;SDS011;65532;52.124;5.480;2023-04-07T14:13:59;8.02;;;2.50;;
76636;SDS011;65532;52.124;5.480;2023-04-07T14:16:27;3.88;;;1.52;;
76636;SDS011;65532;52.124;5.480;2023-04-07T14:18:53;3.97;;;3.00;;
76636;SDS011;65532;52.124;5.480;2023-04-07T14:21:21;4.95;;;1.55;;
76636;SDS011;65532;52.124;5.480;2023-04-07T14:23:47;4.88;;;1.88;;
76636;SDS011;65532;52.124;5.480;2023-04-07T14:26:14;3.58;;;2.08;;
76636;SDS011;65532;52.124;5.480;2023-04-07T14:28:40;3.13;;;0.75;;
76636;SDS011;65532;52.124;5.480;2023-04-07T14:31:11;4.43;;;0.73;;
76636;SDS011;65532;52.124;5.480;2023-04-07T14:33:39;1.90;;;1.00;;
76636;SDS011;65532;52.124;5.480;2023-04-07T14:36:06;2.47;;;0.47;;
76636;SDS011;65532;52.124;5.480;2023-04-07T14:38:32;5.95;;;0.63;;
76636;SDS011;65532;52.124;5.480;2023-04-07T14:41:00;3.28;;;1.80;;
76636;SDS011;65532;52.124;5.480;2023-04-07T14:43:31;3.67;;;1.73;;
76636;SDS011;65532;52.124;5.480;2023-04-07T14:45:57;4.22;;;1.95;;
76636;SDS011;65532;52.124;5.480;2023-04-07T14:48:25;6.93;;;0.77;;
76636;SDS011;65532;52.124;5.480;2023-04-07T14:50:51;6.82;;;3.00;;
76636;SDS011;65532;52.124;5.480;2023-04-07T14:53:33;4.60;;;1.70;;
76636;SDS011;65532;52.124;5.480;2023-04-07T14:56:02;7.70;;;1.65;;
76636;SDS011;65532;52.124;5.480;2023-04-07T14:58:30;6.95;;;1.52;;
76636;SDS011;65532;52.124;5.480;2023-04-07T15:00:57;2.95;;;1.15;;
76636;SDS011;65532;52.124;5.480;2023-04-07T15:03:23;4.93;;;2.78;;
76636;SDS011;65532;52.124;5.480;2023-04-07T15:05:50;6.22;;;2.58;;
76636;SDS011;65532;52.124;5.480;2023-04-07T15:08:16;6.60;;;1.80;;
76636;SDS011;65532;52.124;5.480;2023-04-07T15:10:43;3.42;;;0.93;;
76636;SDS011;65532;52.124;5.480;2023-04-07T15:13:09;5.00;;;1.88;;
76636;SDS011;65532;52.124;5.480;2023-04-07T15:15:36;5.93;;;2.40;;
76636;SDS011;65532;52.124;5.480;2023-04-07T15:18:02;6.03;;;1.88;;
76636;SDS011;65532;52.124;5.480;2023-04-07T15:20:29;3.22;;;1.15;;